Time;durP1;ratioP1;P1;durP2;ratioP2;P2;SDS_P1;SDS_P2;PMS_P1;PMS_P2;Temp;Humidity;BMP_temperature;BMP_pressure;BME280_temperature;BME280_humidity;BME280_pressure;Samples;Min_cycle;Max_cycle;Signal;HPM_P1;HPM_P2
2022/03/18 00:01:12;;;;;;;42.43;28.80;;;;;;;;;;4977292;28;20211;-60
2022/03/18 00:03:39;;;;;;;42.00;30.23;;;;;;;;;;4999707;28;20231;-60
2022/03/18 00:06:07;;;;;;;40.13;28.57;;;;;;;;;;5000780;28;20203;-61
2022/03/18 00:08:35;;;;;;;42.13;28.90;;;;;;;;;;5010066;28;20231;-61
2022/03/18 00:11:02;;;;;;;40.60;27.77;;;;;;;;;;4995654;28;20681;-61
2022/03/18 00:13:30;;;;;;;40.67;27.80;;;;;;;;;;4982862;28;20211;-60
2022/03/18 00:15:57;;;;;;;37.10;27.43;;;;;;;;;;4996381;28;20207;-61
2022/03/18 00:18:24;;;;;;;41.20;28.23;;;;;;;;;;4995758;28;20246;-62
2022/03/18 00:20:52;;;;;;;40.20;28.20;;;;;;;;;;4992394;28;20645;-62
2022/03/18 00:23:19;;;;;;;42.47;30.03;;;;;;;;;;5001084;28;20215;-62
2022/03/18 00:25:47;;;;;;;40.67;28.07;;;;;;;;;;4997090;28;20204;-62
2022/03/18 00:28:14;;;;;;;42.33;28.83;;;;;;;;;;4998731;28;20239;-61
2022/03/18 00:30:42;;;;;;;41.57;29.00;;;;;;;;;;4997453;28;20650;-62
2022/03/18 00:33:09;;;;;;;44.60;29.70;;;;;;;;;;5000653;28;21114;-62
2022/03/18 00:35:36;;;;;;;41.17;29.30;;;;;;;;;;4998774;28;20215;-63
2022/03/18 00:38:04;;;;;;;41.67;29.03;;;;;;;;;;4979094;28;20211;-60
2022/03/18 00:40:32;;;;;;;42.23;28.80;;;;;;;;;;4994609;28;20235;-61
2022/03/18 00:43:00;;;;;;;39.40;27.73;;;;;;;;;;4980338;28;20226;-62
2022/03/18 00:45:29;;;;;;;41.77;29.30;;;;;;;;;;4995047;28;20210;-60
2022/03/18 00:53:28;;;;;;;45.53;30.47;;;;;;;;;;5003212;28;20214;-60
2022/03/18 00:55:56;;;;;;;46.27;31.70;;;;;;;;;;4993831;28;20209;-62
2022/03/18 00:58:23;;;;;;;46.40;31.10;;;;;;;;;;4991437;28;20259;-62
2022/03/18 01:00:51;;;;;;;47.40;31.80;;;;;;;;;;4997336;28;20950;-60
2022/03/18 01:03:19;;;;;;;47.67;32.33;;;;;;;;;;5003963;28;20303;-62
2022/03/18 01:05:47;;;;;;;49.83;33.80;;;;;;;;;;4997310;28;20208;-62
2022/03/18 01:08:14;;;;;;;46.33;32.43;;;;;;;;;;4983830;28;20203;-60
2022/03/18 01:10:41;;;;;;;48.53;33.37;;;;;;;;;;4979866;28;20212;-61
2022/03/18 01:13:09;;;;;;;46.67;32.27;;;;;;;;;;4983396;28;20739;-60
2022/03/18 01:15:36;;;;;;;50.63;32.90;;;;;;;;;;5000235;28;20612;-61
2022/03/18 01:18:04;;;;;;;47.00;32.37;;;;;;;;;;4995246;28;20307;-60
2022/03/18 01:20:31;;;;;;;44.63;31.63;;;;;;;;;;4995097;28;20219;-61
2022/03/18 01:23:00;;;;;;;47.67;32.47;;;;;;;;;;4987510;28;20200;-61
2022/03/18 01:25:27;;;;;;;47.00;32.30;;;;;;;;;;4990915;28;20657;-60
2022/03/18 01:27:55;;;;;;;49.73;33.80;;;;;;;;;;4988017;28;20257;-62
2022/03/18 01:30:22;;;;;;;47.93;32.43;;;;;;;;;;4997228;28;20297;-60
2022/03/18 01:32:49;;;;;;;50.20;32.87;;;;;;;;;;4997181;28;20212;-62
2022/03/18 01:35:17;;;;;;;51.77;33.87;;;;;;;;;;5001998;28;20681;-62
2022/03/18 01:37:44;;;;;;;52.77;34.17;;;;;;;;;;4997717;28;20670;-62
2022/03/18 01:40:12;;;;;;;48.57;34.40;;;;;;;;;;5000025;28;20223;-62
2022/03/18 01:42:39;;;;;;;48.97;34.27;;;;;;;;;;4975070;28;20212;-63
2022/03/18 01:45:08;;;;;;;52.47;34.87;;;;;;;;;;4981699;28;20735;-60
2022/03/18 01:47:35;;;;;;;49.20;34.10;;;;;;;;;;4988679;28;20219;-62
2022/03/18 01:50:03;;;;;;;48.00;33.27;;;;;;;;;;5006045;28;20227;-60
2022/03/18 01:52:30;;;;;;;51.23;34.77;;;;;;;;;;5001431;28;20277;-63
2022/03/18 01:54:58;;;;;;;53.67;35.03;;;;;;;;;;4997092;28;20207;-60
2022/03/18 01:57:28;;;;;;;54.17;35.70;;;;;;;;;;4982263;28;20254;-62
2022/03/18 01:59:56;;;;;;;51.60;34.90;;;;;;;;;;4981492;28;20965;-62
2022/03/18 02:02:24;;;;;;;53.20;34.90;;;;;;;;;;4979555;28;20197;-63
2022/03/18 02:04:52;;;;;;;55.53;35.73;;;;;;;;;;5003828;28;20606;-62
2022/03/18 02:07:19;;;;;;;57.03;37.40;;;;;;;;;;5004571;28;20200;-63
2022/03/18 02:09:46;;;;;;;55.57;36.07;;;;;;;;;;5005248;28;20219;-62
2022/03/18 02:12:15;;;;;;;50.80;35.10;;;;;;;;;;4987281;28;20207;-62
2022/03/18 02:14:43;;;;;;;52.10;34.70;;;;;;;;;;4997659;28;20612;-62
2022/03/18 02:17:12;;;;;;;51.47;35.07;;;;;;;;;;4995096;28;20196;-62
2022/03/18 02:19:40;;;;;;;52.60;34.60;;;;;;;;;;4999672;28;20779;-60
2022/03/18 02:22:12;;;;;;;50.17;33.50;;;;;;;;;;5000009;28;20199;-62
2022/03/18 02:24:40;;;;;;;53.37;35.53;;;;;;;;;;4984056;28;20204;-62
2022/03/18 02:27:08;;;;;;;50.80;33.50;;;;;;;;;;4983130;28;20559;-62
2022/03/18 02:29:36;;;;;;;50.80;33.20;;;;;;;;;;4999892;28;20246;-63
2022/03/18 02:32:07;;;;;;;51.30;33.27;;;;;;;;;;4988051;28;20195;-62
2022/03/18 02:34:35;;;;;;;49.67;32.80;;;;;;;;;;5006062;28;20211;-61
2022/03/18 02:37:03;;;;;;;48.03;32.47;;;;;;;;;;4997269;28;20224;-62
2022/03/18 02:39:30;;;;;;;51.63;33.60;;;;;;;;;;5001033;28;20275;-61
2022/03/18 02:41:58;;;;;;;50.17;33.63;;;;;;;;;;4996958;28;20207;-61
2022/03/18 02:44:25;;;;;;;50.77;33.43;;;;;;;;;;4996840;28;20204;-61
2022/03/18 02:46:53;;;;;;;53.47;33.07;;;;;;;;;;5000884;28;20228;-61
2022/03/18 02:49:20;;;;;;;53.17;33.60;;;;;;;;;;4996021;28;20224;-63
2022/03/18 02:51:48;;;;;;;52.83;33.37;;;;;;;;;;4998044;28;20212;-63
2022/03/18 02:54:15;;;;;;;49.37;31.70;;;;;;;;;;5001239;28;20262;-61
2022/03/18 02:56:42;;;;;;;50.93;32.63;;;;;;;;;;5005783;28;20206;-63
2022/03/18 02:59:10;;;;;;;52.47;33.20;;;;;;;;;;4988227;28;20219;-61
2022/03/18 03:01:37;;;;;;;54.20;33.23;;;;;;;;;;4996505;28;20243;-63
2022/03/18 03:04:05;;;;;;;54.40;33.37;;;;;;;;;;5002070;28;20223;-61
2022/03/18 03:09:19;;;;;;;55.23;33.43;;;;;;;;;;4998132;28;20220;-63
2022/03/18 03:11:46;;;;;;;52.60;33.80;;;;;;;;;;5002131;28;20270;-61
2022/03/18 03:14:14;;;;;;;52.83;33.70;;;;;;;;;;4997234;28;20214;-61
2022/03/18 03:16:42;;;;;;;52.83;32.87;;;;;;;;;;4993815;28;20239;-62
2022/03/18 03:19:10;;;;;;;55.10;34.00;;;;;;;;;;5002063;28;20595;-62
2022/03/18 03:21:38;;;;;;;54.90;34.93;;;;;;;;;;4993192;28;20623;-62
2022/03/18 03:24:06;;;;;;;57.70;34.33;;;;;;;;;;5003559;28;20720;-62
2022/03/18 03:26:33;;;;;;;60.33;35.27;;;;;;;;;;5001555;28;20200;-63
2022/03/18 03:29:01;;;;;;;59.50;36.30;;;;;;;;;;5001635;28;20231;-63
2022/03/18 03:31:28;;;;;;;60.33;36.63;;;;;;;;;;5000993;28;20265;-62
2022/03/18 03:33:55;;;;;;;63.40;38.33;;;;;;;;;;4999841;28;20294;-63
2022/03/18 03:36:23;;;;;;;63.80;37.43;;;;;;;;;;5002289;28;21008;-61
2022/03/18 03:38:51;;;;;;;65.20;38.10;;;;;;;;;;5014935;28;20242;-61
2022/03/18 03:41:21;;;;;;;68.90;38.77;;;;;;;;;;4998940;28;20231;-62
2022/03/18 03:43:48;;;;;;;63.20;38.00;;;;;;;;;;4985175;28;20238;-61
2022/03/18 03:46:16;;;;;;;68.13;39.87;;;;;;;;;;4976405;28;20242;-62
2022/03/18 03:48:43;;;;;;;67.23;39.87;;;;;;;;;;4998846;28;20732;-61
2022/03/18 03:51:11;;;;;;;68.63;40.60;;;;;;;;;;4979261;28;20283;-61
2022/03/18 03:53:38;;;;;;;65.70;40.27;;;;;;;;;;4989634;28;20218;-63
2022/03/18 03:56:06;;;;;;;68.60;40.17;;;;;;;;;;5002075;28;20212;-61
2022/03/18 03:58:33;;;;;;;66.60;39.60;;;;;;;;;;4980620;28;20745;-63
2022/03/18 04:01:01;;;;;;;71.97;41.03;;;;;;;;;;4984259;28;20235;-61
2022/03/18 04:03:28;;;;;;;71.20;42.13;;;;;;;;;;4988610;28;20266;-62
2022/03/18 04:05:56;;;;;;;74.90;42.23;;;;;;;;;;4986987;28;20199;-63
2022/03/18 04:08:23;;;;;;;77.03;43.80;;;;;;;;;;4981809;28;20238;-62
2022/03/18 04:10:50;;;;;;;75.63;41.97;;;;;;;;;;4984452;28;20611;-62
2022/03/18 04:13:18;;;;;;;77.73;43.03;;;;;;;;;;4993310;28;20664;-63
2022/03/18 04:15:45;;;;;;;73.07;41.77;;;;;;;;;;5007779;28;20203;-62
2022/03/18 04:18:13;;;;;;;75.17;42.90;;;;;;;;;;4987829;28;20212;-62
2022/03/18 04:20:40;;;;;;;76.13;42.97;;;;;;;;;;5001371;28;20239;-62
2022/03/18 04:23:07;;;;;;;80.00;44.17;;;;;;;;;;4992198;28;20199;-63
2022/03/18 04:25:35;;;;;;;74.80;44.13;;;;;;;;;;4988449;28;20676;-61
2022/03/18 04:28:03;;;;;;;76.97;44.07;;;;;;;;;;5002806;28;20215;-62
2022/03/18 04:30:30;;;;;;;79.80;44.10;;;;;;;;;;5001030;28;20275;-60
2022/03/18 04:32:58;;;;;;;80.87;43.10;;;;;;;;;;4995067;28;20582;-62
2022/03/18 04:35:26;;;;;;;82.37;44.60;;;;;;;;;;4997881;28;20226;-60
2022/03/18 04:37:53;;;;;;;75.17;44.00;;;;;;;;;;4977671;28;20669;-60
2022/03/18 04:40:21;;;;;;;87.40;44.90;;;;;;;;;;4982195;28;20227;-64
2022/03/18 04:42:48;;;;;;;88.33;45.47;;;;;;;;;;4998049;28;20752;-61
2022/03/18 04:45:16;;;;;;;93.37;47.53;;;;;;;;;;5000792;28;20245;-61
2022/03/18 04:47:43;;;;;;;94.03;45.97;;;;;;;;;;5000198;28;20265;-60
2022/03/18 04:50:11;;;;;;;91.60;46.70;;;;;;;;;;4995973;28;20226;-62
2022/03/18 04:52:39;;;;;;;91.60;48.47;;;;;;;;;;4997327;28;20270;-63
2022/03/18 04:55:07;;;;;;;95.20;47.73;;;;;;;;;;4999768;28;20211;-60
2022/03/18 04:57:34;;;;;;;94.43;48.13;;;;;;;;;;4994898;28;21096;-62
2022/03/18 05:00:02;;;;;;;91.60;46.27;;;;;;;;;;4983553;28;20266;-60
2022/03/18 05:02:30;;;;;;;101.50;49.30;;;;;;;;;;4991753;28;21849;-62
2022/03/18 05:04:57;;;;;;;103.43;52.37;;;;;;;;;;4995716;28;20273;-62
2022/03/18 05:07:25;;;;;;;103.03;53.33;;;;;;;;;;4980228;28;20208;-65
2022/03/18 05:09:53;;;;;;;91.90;47.13;;;;;;;;;;4999435;28;20293;-61
2022/03/18 05:12:20;;;;;;;84.73;45.27;;;;;;;;;;4996739;28;20210;-60
2022/03/18 05:14:52;;;;;;;89.57;46.13;;;;;;;;;;4981230;28;20207;-61
2022/03/18 05:17:19;;;;;;;89.40;46.93;;;;;;;;;;4995319;28;20215;-61
2022/03/18 05:19:47;;;;;;;90.90;47.33;;;;;;;;;;5000551;28;20231;-62
2022/03/18 05:22:14;;;;;;;83.17;45.57;;;;;;;;;;4998337;28;20588;-62
2022/03/18 05:24:42;;;;;;;87.30;45.93;;;;;;;;;;4989248;28;20206;-61
2022/03/18 05:27:09;;;;;;;87.03;47.97;;;;;;;;;;4987068;28;20216;-60
2022/03/18 05:29:37;;;;;;;88.73;47.17;;;;;;;;;;4991150;28;20229;-62
2022/03/18 05:32:04;;;;;;;90.20;47.03;;;;;;;;;;4990914;28;20211;-60
2022/03/18 05:34:32;;;;;;;88.10;46.40;;;;;;;;;;4988921;28;20208;-61
2022/03/18 05:37:00;;;;;;;83.03;45.50;;;;;;;;;;4975267;28;20245;-60
2022/03/18 05:39:28;;;;;;;91.97;48.73;;;;;;;;;;4990544;28;20282;-62
2022/03/18 05:41:55;;;;;;;91.37;47.40;;;;;;;;;;4996097;28;20266;-62
2022/03/18 05:44:23;;;;;;;84.30;46.63;;;;;;;;;;5003577;28;20199;-61
2022/03/18 05:46:51;;;;;;;84.90;47.13;;;;;;;;;;5005690;28;20944;-60
2022/03/18 05:49:19;;;;;;;83.50;46.50;;;;;;;;;;4996888;28;20966;-63
2022/03/18 05:51:46;;;;;;;87.60;47.67;;;;;;;;;;5001435;28;20212;-61
2022/03/18 05:54:14;;;;;;;91.13;47.27;;;;;;;;;;4985098;28;20211;-61
2022/03/18 05:56:53;;;;;;;89.80;47.43;;;;;;;;;;4997422;28;20207;-62
2022/03/18 05:59:22;;;;;;;88.23;46.23;;;;;;;;;;4987879;28;20239;-63
2022/03/18 06:01:49;;;;;;;89.13;48.03;;;;;;;;;;4998866;28;20317;-63
2022/03/18 06:04:17;;;;;;;85.67;47.93;;;;;;;;;;4997597;28;20208;-64
2022/03/18 06:06:47;;;;;;;85.60;48.13;;;;;;;;;;4981243;28;20221;-60
2022/03/18 06:12:04;;;;;;;83.60;47.93;;;;;;;;;;4996658;28;20204;-61
2022/03/18 06:14:32;;;;;;;85.63;48.10;;;;;;;;;;4979046;28;20211;-63
2022/03/18 06:17:00;;;;;;;83.53;46.87;;;;;;;;;;4991052;28;20242;-61
2022/03/18 06:19:29;;;;;;;80.93;47.13;;;;;;;;;;4998791;28;20270;-63
2022/03/18 06:21:57;;;;;;;86.13;47.47;;;;;;;;;;5000071;28;20236;-62
2022/03/18 06:24:25;;;;;;;76.90;46.43;;;;;;;;;;4994485;28;20212;-61
2022/03/18 06:26:53;;;;;;;86.70;47.30;;;;;;;;;;4994780;28;20211;-61
2022/03/18 06:29:21;;;;;;;79.37;47.37;;;;;;;;;;4986369;28;20242;-61
2022/03/18 06:31:49;;;;;;;81.30;47.97;;;;;;;;;;5002338;28;20216;-61
2022/03/18 06:34:17;;;;;;;82.90;47.93;;;;;;;;;;4989568;28;20853;-63
2022/03/18 06:36:44;;;;;;;79.57;47.30;;;;;;;;;;4993878;28;20590;-62
2022/03/18 06:39:12;;;;;;;79.33;48.23;;;;;;;;;;5000807;28;20231;-62
2022/03/18 06:41:39;;;;;;;83.27;48.87;;;;;;;;;;5001477;28;20238;-59
2022/03/18 06:44:08;;;;;;;87.07;48.30;;;;;;;;;;4982314;28;20765;-62
2022/03/18 06:46:36;;;;;;;81.27;48.57;;;;;;;;;;4984679;28;20281;-63
2022/03/18 06:49:04;;;;;;;86.73;49.67;;;;;;;;;;4994813;28;20232;-61
2022/03/18 06:51:32;;;;;;;84.07;48.23;;;;;;;;;;4996884;28;20212;-62
2022/03/18 06:53:59;;;;;;;80.50;47.53;;;;;;;;;;4981652;28;20226;-62
2022/03/18 06:56:30;;;;;;;79.90;47.63;;;;;;;;;;4986145;28;20257;-60
2022/03/18 06:58:59;;;;;;;81.13;50.17;;;;;;;;;;4998848;28;20231;-62
2022/03/18 07:01:26;;;;;;;83.23;49.70;;;;;;;;;;4979163;28;20708;-62
2022/03/18 07:03:54;;;;;;;81.17;48.77;;;;;;;;;;5000891;28;20289;-61
2022/03/18 07:06:22;;;;;;;82.70;49.20;;;;;;;;;;5002285;28;20258;-62
2022/03/18 07:08:49;;;;;;;78.23;49.20;;;;;;;;;;5003253;28;20242;-60
2022/03/18 07:11:16;;;;;;;80.33;49.17;;;;;;;;;;4998555;28;20673;-60
2022/03/18 07:13:45;;;;;;;77.13;47.60;;;;;;;;;;4997816;28;20208;-61
2022/03/18 07:18:59;;;;;;;76.27;45.70;;;;;;;;;;4995542;28;20668;-62
2022/03/18 07:21:27;;;;;;;74.67;45.60;;;;;;;;;;4988733;28;20246;-61
2022/03/18 07:23:54;;;;;;;70.70;45.57;;;;;;;;;;5005334;28;20206;-61
2022/03/18 07:26:21;;;;;;;72.77;44.70;;;;;;;;;;4985306;28;20200;-62
2022/03/18 07:28:49;;;;;;;74.10;45.77;;;;;;;;;;5004227;28;20232;-60
2022/03/18 07:31:16;;;;;;;73.40;45.33;;;;;;;;;;4982933;28;20581;-61
2022/03/18 07:33:43;;;;;;;75.63;44.90;;;;;;;;;;4999303;28;20207;-60
2022/03/18 07:36:11;;;;;;;70.53;44.03;;;;;;;;;;4995511;28;20705;-61
2022/03/18 07:38:38;;;;;;;70.23;43.80;;;;;;;;;;4999498;28;20223;-62
2022/03/18 07:41:06;;;;;;;75.60;45.03;;;;;;;;;;4998010;28;21220;-62
2022/03/18 07:43:33;;;;;;;73.77;44.30;;;;;;;;;;4980831;28;20205;-63
2022/03/18 07:46:00;;;;;;;68.50;42.80;;;;;;;;;;4999610;28;20570;-59
2022/03/18 07:48:28;;;;;;;68.93;44.23;;;;;;;;;;4992718;28;20231;-60
2022/03/18 07:50:56;;;;;;;68.83;43.47;;;;;;;;;;4997990;28;20294;-60
2022/03/18 07:53:23;;;;;;;68.97;43.03;;;;;;;;;;4996708;28;20203;-62
2022/03/18 07:55:51;;;;;;;67.73;41.50;;;;;;;;;;4989284;28;20615;-61
2022/03/18 07:58:18;;;;;;;68.50;42.60;;;;;;;;;;4965351;28;20210;-61
2022/03/18 08:00:46;;;;;;;65.13;42.00;;;;;;;;;;4983680;28;21587;-62
2022/03/18 08:03:14;;;;;;;68.90;42.20;;;;;;;;;;4977997;28;20612;-62
2022/03/18 08:05:42;;;;;;;63.17;39.90;;;;;;;;;;4975383;28;20208;-61
2022/03/18 08:08:10;;;;;;;62.10;39.90;;;;;;;;;;4982191;28;20516;-61
2022/03/18 08:10:38;;;;;;;61.60;38.70;;;;;;;;;;4989900;28;20204;-62
2022/03/18 08:13:05;;;;;;;61.93;38.33;;;;;;;;;;4970498;28;20216;-61
2022/03/18 08:15:33;;;;;;;60.47;38.83;;;;;;;;;;4984257;28;20215;-63
2022/03/18 08:18:02;;;;;;;59.07;39.03;;;;;;;;;;4969031;28;20216;-61
2022/03/18 08:20:30;;;;;;;59.17;39.57;;;;;;;;;;4992499;28;20221;-62
2022/03/18 08:22:59;;;;;;;58.53;37.73;;;;;;;;;;4982217;28;20263;-61
2022/03/18 08:25:26;;;;;;;54.77;35.97;;;;;;;;;;4985448;28;20203;-61
2022/03/18 08:27:54;;;;;;;56.67;36.27;;;;;;;;;;4969864;28;20294;-61
2022/03/18 08:30:21;;;;;;;54.93;34.93;;;;;;;;;;4973491;28;20223;-62
2022/03/18 08:32:48;;;;;;;57.65;43.90;;;;;;;;;;4991601;28;23156;-61
2022/03/18 08:35:16;;;;;;;55.33;37.73;;;;;;;;;;4982056;28;20223;-61
2022/03/18 08:37:58;;;;;;;53.30;36.43;;;;;;;;;;4988611;28;20199;-63
2022/03/18 08:40:27;;;;;;;51.73;35.00;;;;;;;;;;4994459;28;20235;-62
2022/03/18 08:42:55;;;;;;;53.07;34.67;;;;;;;;;;5001959;28;20236;-63
2022/03/18 08:45:23;;;;;;;52.13;33.60;;;;;;;;;;4992715;28;20211;-63
2022/03/18 08:47:51;;;;;;;53.27;33.83;;;;;;;;;;4997048;28;20207;-61
2022/03/18 08:50:20;;;;;;;50.03;33.27;;;;;;;;;;4988497;28;20219;-62
2022/03/18 08:52:49;;;;;;;47.33;32.63;;;;;;;;;;4993227;28;20261;-63
2022/03/18 08:55:17;;;;;;;50.33;33.63;;;;;;;;;;5001701;28;20230;-61
2022/03/18 08:57:45;;;;;;;47.87;32.83;;;;;;;;;;4994290;28;20252;-62
2022/03/18 09:00:14;;;;;;;49.83;34.30;;;;;;;;;;5002269;28;20719;-63
2022/03/18 09:02:43;;;;;;;46.87;31.33;;;;;;;;;;4995639;28;21417;-63
2022/03/18 09:05:11;;;;;;;41.47;29.93;;;;;;;;;;4997869;28;20254;-63
2022/03/18 09:07:39;;;;;;;48.50;32.50;;;;;;;;;;4998914;28;20209;-62
2022/03/18 09:10:08;;;;;;;46.77;30.67;;;;;;;;;;4997480;28;20764;-61
2022/03/18 09:12:35;;;;;;;42.70;29.53;;;;;;;;;;4978988;28;20293;-62
2022/03/18 09:15:03;;;;;;;47.73;31.93;;;;;;;;;;4974319;28;20214;-63
2022/03/18 09:17:31;;;;;;;46.23;31.97;;;;;;;;;;4993340;28;20212;-63
2022/03/18 09:19:58;;;;;;;43.83;30.47;;;;;;;;;;4991152;28;20717;-63
2022/03/18 09:22:26;;;;;;;44.97;30.60;;;;;;;;;;4987722;28;20660;-61
2022/03/18 09:24:53;;;;;;;42.20;29.80;;;;;;;;;;4975554;28;20582;-61
2022/03/18 09:27:20;;;;;;;44.33;30.10;;;;;;;;;;4997050;28;20219;-63
2022/03/18 09:29:48;;;;;;;43.40;30.10;;;;;;;;;;4993043;28;20227;-63
2022/03/18 09:32:16;;;;;;;40.67;29.10;;;;;;;;;;4978653;28;20620;-62
2022/03/18 09:34:44;;;;;;;41.97;29.27;;;;;;;;;;4996760;28;20199;-63
2022/03/18 09:37:11;;;;;;;38.97;28.40;;;;;;;;;;4972861;28;20222;-64
2022/03/18 09:39:39;;;;;;;39.87;28.07;;;;;;;;;;4993838;28;20776;-64
2022/03/18 09:42:09;;;;;;;41.23;27.60;;;;;;;;;;4996553;28;20772;-61
2022/03/18 09:44:37;;;;;;;38.23;27.03;;;;;;;;;;4986669;28;20254;-60
2022/03/18 09:47:05;;;;;;;38.53;27.43;;;;;;;;;;4991292;28;20270;-61
2022/03/18 09:49:33;;;;;;;39.60;27.40;;;;;;;;;;4994917;28;20251;-60
2022/03/18 09:52:01;;;;;;;41.40;29.03;;;;;;;;;;4975965;28;20214;-63
2022/03/18 09:54:29;;;;;;;43.50;28.97;;;;;;;;;;4979782;28;20203;-62
2022/03/18 09:56:57;;;;;;;37.17;26.80;;;;;;;;;;4983777;28;20626;-64
2022/03/18 09:59:27;;;;;;;36.40;26.93;;;;;;;;;;4999499;28;20767;-63
2022/03/18 10:02:13;;;;;;;39.83;27.17;;;;;;;;;;4995104;28;20239;-62
2022/03/18 10:04:58;;;;;;;40.97;28.00;;;;;;;;;;4974685;28;20212;-65
2022/03/18 10:07:26;;;;;;;47.13;29.47;;;;;;;;;;4994774;28;20222;-62
2022/03/18 10:10:03;;;;;;;37.33;26.83;;;;;;;;;;4982732;28;20315;-61
2022/03/18 10:12:37;;;;;;;42.93;28.17;;;;;;;;;;4978820;28;20713;-62
2022/03/18 10:15:09;;;;;;;40.97;28.20;;;;;;;;;;4987034;28;20235;-62
2022/03/18 10:18:02;;;;;;;47.23;30.37;;;;;;;;;;4985224;28;21761;-61
2022/03/18 10:20:30;;;;;;;42.63;29.07;;;;;;;;;;4977246;28;20225;-60
2022/03/18 10:22:58;;;;;;;41.53;28.13;;;;;;;;;;4995281;28;20242;-61
2022/03/18 10:25:38;;;;;;;45.53;30.03;;;;;;;;;;4977569;28;20626;-62
2022/03/18 10:28:06;;;;;;;72.67;39.03;;;;;;;;;;4997925;28;20255;-62
2022/03/18 10:30:34;;;;;;;193.23;72.40;;;;;;;;;;4979063;28;20270;-60
2022/03/18 10:33:01;;;;;;;48.77;29.53;;;;;;;;;;4993310;28;20207;-61
2022/03/18 10:38:30;;;;;;;32.00;24.10;;;;;;;;;;5003648;28;20231;-61
2022/03/18 10:40:59;;;;;;;33.87;23.87;;;;;;;;;;4995864;28;20218;-61
2022/03/18 10:43:27;;;;;;;35.70;24.20;;;;;;;;;;4971969;28;20236;-62
2022/03/18 10:46:01;;;;;;;35.57;25.63;;;;;;;;;;4976928;28;20215;-61
2022/03/18 10:48:29;;;;;;;34.03;24.33;;;;;;;;;;4992287;28;20273;-61
2022/03/18 10:51:06;;;;;;;35.03;24.40;;;;;;;;;;4978312;28;20208;-62
2022/03/18 10:53:34;;;;;;;34.83;23.60;;;;;;;;;;4971081;28;20215;-61
2022/03/18 10:56:03;;;;;;;34.90;24.07;;;;;;;;;;4976908;28;20216;-61
2022/03/18 10:58:32;;;;;;;31.67;23.67;;;;;;;;;;4982967;28;20287;-61
2022/03/18 11:01:03;;;;;;;36.43;24.97;;;;;;;;;;4991956;28;20298;-62
2022/03/18 11:03:32;;;;;;;36.97;26.77;;;;;;;;;;4982661;28;20376;-62
2022/03/18 11:06:02;;;;;;;38.53;26.27;;;;;;;;;;4997326;28;20210;-59
2022/03/18 11:08:40;;;;;;;36.37;26.23;;;;;;;;;;4979148;28;20238;-62
2022/03/18 11:11:14;;;;;;;34.20;25.43;;;;;;;;;;4993129;28;20774;-63
2022/03/18 11:14:03;;;;;;;33.50;23.97;;;;;;;;;;4977462;28;20298;-61
2022/03/18 11:16:34;;;;;;;31.67;23.57;;;;;;;;;;4990138;28;20609;-61
2022/03/18 11:19:05;;;;;;;32.90;23.77;;;;;;;;;;4990935;28;20602;-62
2022/03/18 11:21:36;;;;;;;30.37;23.13;;;;;;;;;;4985924;28;20638;-62
2022/03/18 11:24:05;;;;;;;31.00;22.77;;;;;;;;;;4993990;28;20215;-62
2022/03/18 11:26:34;;;;;;;33.23;22.83;;;;;;;;;;4989034;28;20204;-60
2022/03/18 11:29:07;;;;;;;30.63;23.57;;;;;;;;;;4987016;28;20643;-60
2022/03/18 11:31:34;;;;;;;33.03;24.07;;;;;;;;;;4990638;28;20208;-60
2022/03/18 11:34:21;;;;;;;33.67;24.57;;;;;;;;;;4989227;28;20224;-61
2022/03/18 11:37:05;;;;;;;29.57;22.27;;;;;;;;;;4989106;28;20212;-61
2022/03/18 11:39:33;;;;;;;28.80;22.77;;;;;;;;;;4991735;28;20231;-61
2022/03/18 11:42:10;;;;;;;31.20;23.93;;;;;;;;;;4975072;28;20203;-60
2022/03/18 11:44:42;;;;;;;30.13;23.30;;;;;;;;;;4989374;28;20208;-60
2022/03/18 11:47:19;;;;;;;31.77;23.63;;;;;;;;;;4976319;28;20219;-62
2022/03/18 11:49:47;;;;;;;30.40;22.93;;;;;;;;;;4986525;28;20226;-63
2022/03/18 11:52:14;;;;;;;31.97;24.10;;;;;;;;;;4967032;28;21053;-61
2022/03/18 11:54:51;;;;;;;29.37;22.40;;;;;;;;;;4991442;28;20982;-64
2022/03/18 11:57:34;;;;;;;29.53;22.47;;;;;;;;;;4994220;28;20226;-62
2022/03/18 12:00:05;;;;;;;26.83;21.73;;;;;;;;;;4993263;28;20589;-64
2022/03/18 12:02:33;;;;;;;31.10;22.70;;;;;;;;;;4994432;28;20227;-61
2022/03/18 12:05:01;;;;;;;29.67;21.63;;;;;;;;;;4994018;28;20215;-62
2022/03/18 12:07:30;;;;;;;27.67;21.53;;;;;;;;;;4973627;28;20307;-62
2022/03/18 12:10:11;;;;;;;29.07;22.20;;;;;;;;;;4990518;28;20309;-63
2022/03/18 12:12:40;;;;;;;29.70;22.57;;;;;;;;;;5000333;28;20211;-63
2022/03/18 12:15:11;;;;;;;27.23;21.37;;;;;;;;;;4976546;28;20207;-61
2022/03/18 12:17:41;;;;;;;27.77;21.90;;;;;;;;;;4994171;28;20215;-62
2022/03/18 12:20:10;;;;;;;29.70;22.53;;;;;;;;;;4989226;28;20712;-62
2022/03/18 12:22:38;;;;;;;28.57;21.53;;;;;;;;;;4984854;28;20218;-62
2022/03/18 12:25:06;;;;;;;26.60;21.20;;;;;;;;;;4980810;28;20204;-62
2022/03/18 12:27:36;;;;;;;30.57;21.67;;;;;;;;;;4989619;28;20219;-62
2022/03/18 12:30:07;;;;;;;28.27;22.17;;;;;;;;;;4988292;28;20231;-62
2022/03/18 12:32:38;;;;;;;30.30;22.00;;;;;;;;;;5000186;28;20208;-63
2022/03/18 12:35:05;;;;;;;30.30;22.40;;;;;;;;;;5000682;28;20215;-61
2022/03/18 12:37:34;;;;;;;29.23;21.70;;;;;;;;;;4990402;28;20637;-62
2022/03/18 12:40:03;;;;;;;29.40;21.87;;;;;;;;;;5005357;28;20367;-62
2022/03/18 12:42:31;;;;;;;28.03;22.23;;;;;;;;;;4996889;28;20610;-63
2022/03/18 12:45:02;;;;;;;29.37;21.93;;;;;;;;;;4999220;28;20200;-63
2022/03/18 12:47:31;;;;;;;28.50;21.70;;;;;;;;;;4998619;28;20243;-63
2022/03/18 12:50:00;;;;;;;30.40;22.50;;;;;;;;;;4994370;28;20224;-61
2022/03/18 12:52:28;;;;;;;30.50;22.30;;;;;;;;;;4995382;28;20292;-64
2022/03/18 12:55:06;;;;;;;31.93;23.57;;;;;;;;;;5012562;28;20222;-63
2022/03/18 12:57:41;;;;;;;29.07;22.33;;;;;;;;;;5001659;28;21602;-63
2022/03/18 13:00:11;;;;;;;28.47;21.93;;;;;;;;;;5001826;28;20238;-62
2022/03/18 13:02:59;;;;;;;27.93;21.07;;;;;;;;;;5002536;28;20628;-64
2022/03/18 13:05:28;;;;;;;26.70;20.50;;;;;;;;;;4985583;28;20219;-63
2022/03/18 13:08:05;;;;;;;27.27;21.13;;;;;;;;;;4985187;28;20208;-62
2022/03/18 13:10:32;;;;;;;30.83;22.43;;;;;;;;;;4970311;28;20670;-64
2022/03/18 13:13:13;;;;;;;29.67;22.33;;;;;;;;;;4999712;28;20211;-62
2022/03/18 13:15:47;;;;;;;29.70;21.70;;;;;;;;;;5003791;28;20330;-63
2022/03/18 13:18:15;;;;;;;30.10;21.73;;;;;;;;;;5000535;28;20208;-63
2022/03/18 13:20:43;;;;;;;28.37;21.70;;;;;;;;;;4999349;28;20210;-63
2022/03/18 13:23:11;;;;;;;27.53;21.43;;;;;;;;;;4988696;28;20309;-64
2022/03/18 13:25:40;;;;;;;27.20;21.50;;;;;;;;;;5005984;28;20200;-60
2022/03/18 13:28:08;;;;;;;29.20;22.03;;;;;;;;;;5010685;28;20207;-62
2022/03/18 13:33:23;;;;;;;30.97;22.37;;;;;;;;;;4999705;28;21042;-61
2022/03/18 13:35:54;;;;;;;28.97;21.90;;;;;;;;;;4984742;28;20254;-63
2022/03/18 13:38:23;;;;;;;28.50;21.97;;;;;;;;;;5000613;28;20762;-62
2022/03/18 13:40:56;;;;;;;28.27;21.83;;;;;;;;;;4992890;28;20254;-62
2022/03/18 13:43:25;;;;;;;29.43;23.10;;;;;;;;;;4994374;28;20248;-62
2022/03/18 13:45:52;;;;;;;27.53;21.90;;;;;;;;;;4982464;28;20208;-62
2022/03/18 13:48:27;;;;;;;29.77;23.03;;;;;;;;;;4993407;28;20200;-62
2022/03/18 13:50:54;;;;;;;28.83;22.60;;;;;;;;;;4996714;28;20207;-61
2022/03/18 13:53:23;;;;;;;29.77;23.00;;;;;;;;;;4980907;28;20203;-63
2022/03/18 13:55:51;;;;;;;28.63;22.20;;;;;;;;;;4978705;28;20222;-62
2022/03/18 13:58:25;;;;;;;34.20;22.63;;;;;;;;;;4988201;28;20227;-62
2022/03/18 14:00:54;;;;;;;29.70;22.90;;;;;;;;;;4993727;28;20212;-60
2022/03/18 14:03:29;;;;;;;29.07;23.00;;;;;;;;;;4998009;28;20276;-60
2022/03/18 14:06:04;;;;;;;28.47;22.90;;;;;;;;;;4993491;28;21032;-61
2022/03/18 14:08:38;;;;;;;32.20;23.77;;;;;;;;;;4998355;28;20240;-62
2022/03/18 14:13:53;;;;;;;28.73;21.97;;;;;;;;;;4993869;28;20314;-62
2022/03/18 14:16:20;;;;;;;29.40;22.03;;;;;;;;;;4991611;28;20207;-62
2022/03/18 14:18:49;;;;;;;30.43;23.10;;;;;;;;;;4987209;28;20232;-61
2022/03/18 14:21:17;;;;;;;28.10;21.90;;;;;;;;;;4987577;28;20203;-61
2022/03/18 14:23:46;;;;;;;26.17;21.07;;;;;;;;;;4987042;28;20239;-60
2022/03/18 14:26:14;;;;;;;25.90;20.50;;;;;;;;;;4987414;28;20246;-61
2022/03/18 14:28:46;;;;;;;25.90;20.53;;;;;;;;;;4996225;28;20219;-61
2022/03/18 14:31:14;;;;;;;26.60;19.97;;;;;;;;;;4970681;28;20650;-61
2022/03/18 14:33:41;;;;;;;24.87;19.87;;;;;;;;;;4971078;28;20216;-61
2022/03/18 14:36:09;;;;;;;24.03;19.10;;;;;;;;;;4968476;28;20211;-61
2022/03/18 14:38:42;;;;;;;24.13;19.07;;;;;;;;;;4980686;28;20231;-61
2022/03/18 14:41:12;;;;;;;24.27;18.67;;;;;;;;;;4990333;28;20677;-63
2022/03/18 14:43:39;;;;;;;25.07;18.77;;;;;;;;;;4987886;28;20852;-63
2022/03/18 14:46:09;;;;;;;24.03;18.93;;;;;;;;;;4984906;28;20215;-62
2022/03/18 14:48:36;;;;;;;25.77;19.50;;;;;;;;;;4976781;28;20239;-62